Time;durP1;ratioP1;P1;durP2;ratioP2;P2;SDS_P1;SDS_P2;PMS_P1;PMS_P2;Temp;Humidity;BMP_temperature;BMP_pressure;BME280_temperature;BME280_humidity;BME280_pressure;Samples;Min_cycle;Max_cycle;Signal;HPM_P1;HPM_P2
2022/11/11 06:16:27;;;;;;;;;;;21.90;72.30;;;;;;6151853;23;19956;-71
2022/11/11 06:18:53;;;;;;;;;;;22.00;72.30;;;;;;6124242;23;19991;-73
2022/11/11 06:21:20;;;;;;;;;;;21.90;71.80;;;;;;6150733;23;19912;-73
2022/11/11 06:23:46;;;;;;;;;;;21.90;72.30;;;;;;6124692;23;19908;-74
2022/11/11 06:26:13;;;;;;;;;;;22.00;71.40;;;;;;6152473;23;19908;-73
2022/11/11 06:28:39;;;;;;;;;;;22.00;71.90;;;;;;6152254;23;19909;-74
2022/11/11 06:31:06;;;;;;;;;;;22.00;71.80;;;;;;6151594;23;19915;-73
2022/11/11 06:33:36;;;;;;;;;;;22.00;70.90;;;;;;6151707;23;19912;-73
2022/11/11 06:36:03;;;;;;;;;;;22.00;71.70;;;;;;6125459;23;19912;-73
2022/11/11 06:38:30;;;;;;;;;;;22.00;71.50;;;;;;6151841;23;20347;-75
2022/11/11 06:40:57;;;;;;;;;;;22.00;70.90;;;;;;6151979;23;19912;-75
2022/11/11 06:43:23;;;;;;;;;;;22.00;70.90;;;;;;6125184;23;20371;-73
2022/11/11 06:45:50;;;;;;;;;;;22.00;71.10;;;;;;6152472;23;19916;-72
2022/11/11 06:48:17;;;;;;;;;;;22.00;71.10;;;;;;6126083;23;19908;-73
2022/11/11 06:50:43;;;;;;;;;;;22.00;72.10;;;;;;6100652;23;19912;-71
2022/11/11 06:53:11;;;;;;;;;;;22.00;72.40;;;;;;6151439;23;19908;-68
2022/11/11 06:55:38;;;;;;;;;;;22.00;72.10;;;;;;6151995;23;19967;-70
2022/11/11 06:58:11;;;;;;;;;;;22.00;72.40;;;;;;6123243;23;19913;-70
2022/11/11 07:00:38;;;;;;;;;;;22.00;72.00;;;;;;6151357;23;20351;-69
2022/11/11 07:03:05;;;;;;;;;;;22.00;72.30;;;;;;6099968;23;19916;-71
2022/11/11 07:05:32;;;;;;;;;;;22.00;71.50;;;;;;6151844;23;19912;-70
2022/11/11 07:08:03;;;;;;;;;;;22.00;71.60;;;;;;6126039;23;19909;-70
2022/11/11 07:10:30;;;;;;;;;;;22.10;71.10;;;;;;6125967;23;20012;-72
2022/11/11 07:12:56;;;;;;;;;;;22.10;71.10;;;;;;6125881;23;19984;-71
2022/11/11 07:15:23;;;;;;;;;;;22.00;70.90;;;;;;6150675;23;19924;-72
2022/11/11 07:17:49;;;;;;;;;;;22.00;70.70;;;;;;6142032;23;20298;-72
2022/11/11 07:20:16;;;;;;;;;;;22.10;70.50;;;;;;6151578;23;19917;-73
2022/11/11 07:22:43;;;;;;;;;;;22.10;70.80;;;;;;6152430;23;20328;-71
2022/11/11 07:25:10;;;;;;;;;;;22.10;70.90;;;;;;6154721;23;19912;-72
2022/11/11 07:27:37;;;;;;;;;;;22.10;70.80;;;;;;6154363;23;19983;-71
2022/11/11 07:30:04;;;;;;;;;;;22.10;70.60;;;;;;6154332;23;19912;-71
2022/11/11 07:32:30;;;;;;;;;;;22.10;70.70;;;;;;6154673;23;19905;-71
2022/11/11 07:34:57;;;;;;;;;;;22.10;71.10;;;;;;6154573;23;19911;-69
2022/11/11 07:37:24;;;;;;;;;;;22.10;70.90;;;;;;6154394;23;19913;-69
2022/11/11 07:39:50;;;;;;;;;;;22.10;71.30;;;;;;6154321;23;19912;-69
2022/11/11 07:42:17;;;;;;;;;;;22.10;71.60;;;;;;6154894;23;19912;-69
2022/11/11 07:44:43;;;;;;;;;;;22.10;71.30;;;;;;6154508;23;20251;-72
2022/11/11 07:47:10;;;;;;;;;;;22.10;71.50;;;;;;6154950;23;19912;-68
2022/11/11 07:49:36;;;;;;;;;;;22.00;71.20;;;;;;6154532;23;19909;-69
2022/11/11 07:52:03;;;;;;;;;;;22.00;71.00;;;;;;6153448;23;19924;-67
2022/11/11 07:54:30;;;;;;;;;;;22.00;71.00;;;;;;6154282;23;19972;-67
2022/11/11 07:56:56;;;;;;;;;;;22.00;70.80;;;;;;6154611;23;19986;-67
2022/11/11 07:59:23;;;;;;;;;;;22.00;70.70;;;;;;6154528;23;19967;-68
2022/11/11 08:01:49;;;;;;;;;;;22.00;70.60;;;;;;6154672;23;19905;-67
2022/11/11 08:04:16;;;;;;;;;;;22.00;70.70;;;;;;6154565;23;20328;-67
2022/11/11 08:06:43;;;;;;;;;;;21.90;70.30;;;;;;6154887;23;19915;-67
2022/11/11 08:09:09;;;;;;;;;;;22.00;70.60;;;;;;6154653;23;19912;-67
2022/11/11 08:14:20;;;;;;;;;;;21.90;70.80;;;;;;6154200;23;19952;-67
2022/11/11 08:16:47;;;;;;;;;;;21.90;70.90;;;;;;6154440;23;19924;-67
2022/11/11 08:19:13;;;;;;;;;;;21.90;70.80;;;;;;6154336;23;20350;-67
2022/11/11 08:21:40;;;;;;;;;;;21.80;70.90;;;;;;6154432;23;20248;-67
2022/11/11 08:24:08;;;;;;;;;;;21.90;70.90;;;;;;6154381;23;19946;-67
2022/11/11 08:26:34;;;;;;;;;;;21.80;70.90;;;;;;6154377;23;19904;-67
2022/11/11 08:29:01;;;;;;;;;;;21.80;71.10;;;;;;6154476;23;20335;-67
2022/11/11 08:31:27;;;;;;;;;;;21.80;71.40;;;;;;6154554;23;19912;-67
2022/11/11 08:33:54;;;;;;;;;;;21.80;71.20;;;;;;6154561;23;19912;-67
2022/11/11 08:36:22;;;;;;;;;;;21.70;71.40;;;;;;6154436;23;19912;-67
2022/11/11 08:38:48;;;;;;;;;;;21.80;71.70;;;;;;6128772;23;19911;-67
2022/11/11 08:41:15;;;;;;;;;;;21.70;71.70;;;;;;6153883;23;19919;-67
2022/11/11 08:43:42;;;;;;;;;;;21.70;71.70;;;;;;6155063;23;19992;-67
2022/11/11 08:46:10;;;;;;;;;;;21.70;71.90;;;;;;6156311;23;20073;-67
2022/11/11 08:48:37;;;;;;;;;;;21.70;71.90;;;;;;6156627;23;19904;-67
2022/11/11 08:51:03;;;;;;;;;;;21.70;72.10;;;;;;6156559;23;19904;-67
2022/11/11 08:53:31;;;;;;;;;;;21.70;72.10;;;;;;6156264;23;19963;-67
2022/11/11 08:56:00;;;;;;;;;;;21.60;72.20;;;;;;6156118;23;19912;-67
2022/11/11 08:58:26;;;;;;;;;;;21.60;72.40;;;;;;6156060;23;20346;-67
2022/11/11 09:00:53;;;;;;;;;;;21.60;72.50;;;;;;6155986;23;19912;-67
2022/11/11 09:03:19;;;;;;;;;;;21.50;72.40;;;;;;6155915;23;20239;-67
2022/11/11 09:05:46;;;;;;;;;;;21.60;72.60;;;;;;6156665;23;19912;-67
2022/11/11 09:08:13;;;;;;;;;;;21.50;72.20;;;;;;6156338;23;19908;-67
2022/11/11 09:10:40;;;;;;;;;;;21.50;72.40;;;;;;6156185;23;20236;-67
2022/11/11 09:13:06;;;;;;;;;;;21.50;72.30;;;;;;6156415;23;19905;-67
2022/11/11 09:15:33;;;;;;;;;;;21.50;72.70;;;;;;6156317;23;19983;-67
2022/11/11 09:18:00;;;;;;;;;;;21.50;72.40;;;;;;6155955;23;20225;-67
2022/11/11 09:20:27;;;;;;;;;;;21.50;72.60;;;;;;6156124;23;20308;-67
2022/11/11 09:22:53;;;;;;;;;;;21.40;72.50;;;;;;6155758;23;19909;-67
2022/11/11 09:25:20;;;;;;;;;;;21.40;72.50;;;;;;6156039;23;19950;-67
2022/11/11 09:27:54;;;;;;;;;;;21.40;72.80;;;;;;6155957;23;19905;-66
2022/11/11 09:30:20;;;;;;;;;;;21.30;72.90;;;;;;6156225;23;20184;-66
2022/11/11 09:32:47;;;;;;;;;;;21.30;73.10;;;;;;6156097;23;19992;-67
2022/11/11 09:35:13;;;;;;;;;;;21.30;73.50;;;;;;6155888;23;20358;-68
2022/11/11 09:37:40;;;;;;;;;;;21.20;73.20;;;;;;6155692;23;19928;-68
2022/11/11 09:40:09;;;;;;;;;;;21.20;73.10;;;;;;6155575;23;20285;-67
2022/11/11 09:42:40;;;;;;;;;;;21.20;73.20;;;;;;6129692;23;19904;-66
2022/11/11 09:45:25;;;;;;;;;;;21.20;73.50;;;;;;6156066;23;19940;-66
2022/11/11 09:47:54;;;;;;;;;;;21.10;73.40;;;;;;6130633;23;20247;-67
2022/11/11 09:50:22;;;;;;;;;;;21.10;73.70;;;;;;6155965;23;19904;-67
2022/11/11 09:52:48;;;;;;;;;;;21.10;73.70;;;;;;6156251;23;19904;-67
2022/11/11 09:55:26;;;;;;;;;;;21.10;73.70;;;;;;6155671;23;19979;-67
2022/11/11 09:57:58;;;;;;;;;;;21.10;73.80;;;;;;6130376;23;19912;-67
2022/11/11 10:00:25;;;;;;;;;;;21.10;74.00;;;;;;6130149;23;20340;-67
2022/11/11 10:02:57;;;;;;;;;;;21.00;73.60;;;;;;6129673;23;19911;-66
2022/11/11 10:05:30;;;;;;;;;;;21.00;73.80;;;;;;6154479;23;21553;-67
2022/11/11 10:08:00;;;;;;;;;;;21.00;73.70;;;;;;6155991;23;20298;-67
2022/11/11 10:10:27;;;;;;;;;;;21.00;73.60;;;;;;6129553;23;19972;-67
2022/11/11 10:12:55;;;;;;;;;;;21.00;73.70;;;;;;6155507;23;19905;-67
2022/11/11 10:15:21;;;;;;;;;;;21.00;73.50;;;;;;6155446;23;19940;-66
2022/11/11 10:18:08;;;;;;;;;;;20.90;73.60;;;;;;6146772;23;20280;-66
2022/11/11 10:20:37;;;;;;;;;;;20.80;73.80;;;;;;6155305;23;19963;-67
2022/11/11 10:23:07;;;;;;;;;;;20.80;73.80;;;;;;6153200;23;19935;-67
2022/11/11 10:25:34;;;;;;;;;;;20.80;73.90;;;;;;6153792;23;19904;-67
2022/11/11 10:28:01;;;;;;;;;;;20.80;74.00;;;;;;6154026;23;19905;-67
2022/11/11 10:30:31;;;;;;;;;;;20.80;73.90;;;;;;6153492;23;19913;-68
2022/11/11 10:33:02;;;;;;;;;;;20.80;74.00;;;;;;6155422;23;19904;-68
2022/11/11 10:35:29;;;;;;;;;;;20.70;74.20;;;;;;6155485;23;19905;-67
2022/11/11 10:37:58;;;;;;;;;;;20.70;74.30;;;;;;6156099;23;19928;-68
2022/11/11 10:40:25;;;;;;;;;;;20.70;74.40;;;;;;6153999;23;19920;-67
2022/11/11 10:42:52;;;;;;;;;;;20.70;74.60;;;;;;6129405;23;19905;-68
2022/11/11 10:45:22;;;;;;;;;;;20.70;74.60;;;;;;6155679;23;19905;-67
2022/11/11 10:47:51;;;;;;;;;;;20.70;74.60;;;;;;6155562;23;19914;-67
2022/11/11 10:50:20;;;;;;;;;;;20.60;74.80;;;;;;6155090;23;19908;-67
2022/11/11 10:52:49;;;;;;;;;;;20.70;74.90;;;;;;6153873;23;19905;-67
2022/11/11 10:55:18;;;;;;;;;;;20.60;74.80;;;;;;6153947;23;19913;-68
2022/11/11 10:57:45;;;;;;;;;;;20.60;74.90;;;;;;6153685;23;19904;-67
2022/11/11 11:00:12;;;;;;;;;;;20.50;74.60;;;;;;6154836;23;19995;-67
2022/11/11 11:02:45;;;;;;;;;;;20.60;74.90;;;;;;6155441;23;20291;-67
2022/11/11 11:05:22;;;;;;;;;;;20.50;74.90;;;;;;6153578;23;20001;-67
2022/11/11 11:07:50;;;;;;;;;;;20.50;75.00;;;;;;6153663;23;19909;-67
2022/11/11 11:10:36;;;;;;;;;;;20.50;74.90;;;;;;6154816;23;19905;-69
2022/11/11 11:13:04;;;;;;;;;;;20.50;74.90;;;;;;6134422;23;20286;-69
2022/11/11 11:15:31;;;;;;;;;;;20.50;74.90;;;;;;6153040;23;20343;-67
2022/11/11 11:18:01;;;;;;;;;;;20.50;75.10;;;;;;6154911;23;20256;-67
2022/11/11 11:20:27;;;;;;;;;;;20.50;75.10;;;;;;6154812;23;19926;-67
2022/11/11 11:23:01;;;;;;;;;;;20.40;75.10;;;;;;6128781;23;20296;-67
2022/11/11 11:25:29;;;;;;;;;;;20.40;75.10;;;;;;6154635;23;20284;-67
2022/11/11 11:28:09;;;;;;;;;;;20.40;75.20;;;;;;6155063;23;19904;-67
2022/11/11 11:30:36;;;;;;;;;;;20.40;75.40;;;;;;6154838;23;19984;-67
2022/11/11 11:33:03;;;;;;;;;;;20.30;75.60;;;;;;6128860;23;19905;-67
2022/11/11 11:35:31;;;;;;;;;;;20.30;75.60;;;;;;6154733;23;19905;-67
2022/11/11 11:37:57;;;;;;;;;;;20.30;75.60;;;;;;6154663;23;19904;-67
2022/11/11 11:40:24;;;;;;;;;;;20.30;75.70;;;;;;6155121;23;19920;-67
2022/11/11 11:42:50;;;;;;;;;;;20.30;75.70;;;;;;6153255;23;20287;-70
2022/11/11 11:45:24;;;;;;;;;;;20.30;75.80;;;;;;6154450;23;19980;-71
2022/11/11 11:48:03;;;;;;;;;;;20.30;75.80;;;;;;6153004;23;19984;-71
2022/11/11 11:50:30;;;;;;;;;;;20.20;75.80;;;;;;6153361;23;19905;-71
2022/11/11 11:53:15;;;;;;;;;;;20.20;76.00;;;;;;6154160;23;20268;-69
2022/11/11 11:55:48;;;;;;;;;;;20.20;76.10;;;;;;6153842;23;19904;-72
2022/11/11 11:58:27;;;;;;;;;;;20.20;76.20;;;;;;6128535;23;19904;-72
2022/11/11 12:00:54;;;;;;;;;;;20.20;76.30;;;;;;6128209;23;20280;-70
2022/11/11 12:03:38;;;;;;;;;;;20.20;76.60;;;;;;6153446;23;19908;-72
2022/11/11 12:06:13;;;;;;;;;;;20.10;76.80;;;;;;6127403;23;19905;-73
2022/11/11 12:08:42;;;;;;;;;;;20.10;77.10;;;;;;6154204;23;20271;-73
2022/11/11 12:11:18;;;;;;;;;;;20.10;77.20;;;;;;6154688;23;20036;-71
2022/11/11 12:13:44;;;;;;;;;;;20.10;77.30;;;;;;6153942;23;20471;-71
2022/11/11 12:16:18;;;;;;;;;;;20.00;77.50;;;;;;6153641;23;19912;-70
2022/11/11 12:19:00;;;;;;;;;;;20.00;77.80;;;;;;6153869;23;19938;-70
2022/11/11 12:21:28;;;;;;;;;;;19.90;77.80;;;;;;6128661;23;20367;-70
2022/11/11 12:23:57;;;;;;;;;;;19.80;78.20;;;;;;6103655;23;20247;-71
2022/11/11 12:26:41;;;;;;;;;;;19.80;78.20;;;;;;6153997;23;19992;-70
2022/11/11 12:29:14;;;;;;;;;;;19.80;78.50;;;;;;6153292;23;19979;-70
2022/11/11 12:31:46;;;;;;;;;;;19.70;78.70;;;;;;6128243;23;19909;-71
2022/11/11 12:34:13;;;;;;;;;;;19.70;79.00;;;;;;6154224;23;19909;-70
2022/11/11 12:36:57;;;;;;;;;;;19.70;79.00;;;;;;6154491;23;20023;-70
2022/11/11 12:39:28;;;;;;;;;;;19.70;79.10;;;;;;6153652;23;19913;-71
2022/11/11 12:41:55;;;;;;;;;;;19.70;79.30;;;;;;6128572;23;19912;-70
2022/11/11 12:44:23;;;;;;;;;;;19.70;79.10;;;;;;6153570;23;19905;-71
2022/11/11 12:47:07;;;;;;;;;;;19.70;79.10;;;;;;6128759;23;20296;-70
2022/11/11 12:49:43;;;;;;;;;;;19.70;79.10;;;;;;6128870;23;19913;-70
2022/11/11 12:52:12;;;;;;;;;;;19.70;79.10;;;;;;6154249;23;19975;-70
2022/11/11 12:54:46;;;;;;;;;;;19.70;79.00;;;;;;6154086;23;19960;-70
2022/11/11 12:57:13;;;;;;;;;;;19.70;79.10;;;;;;6128456;23;19998;-70
2022/11/11 12:59:54;;;;;;;;;;;19.70;79.10;;;;;;6154487;23;20327;-71
2022/11/11 13:02:56;;;;;;;;;;;19.70;79.40;;;;;;6154468;23;19955;-72
2022/11/11 13:05:26;;;;;;;;;;;19.70;79.40;;;;;;6007370;23;19914;-71
2022/11/11 13:07:59;;;;;;;;;;;19.60;79.40;;;;;;6107804;23;19909;-72
2022/11/11 13:10:38;;;;;;;;;;;19.60;79.50;;;;;;6127888;23;19909;-71
2022/11/11 13:13:11;;;;;;;;;;;19.60;79.60;;;;;;6154821;23;19983;-71
2022/11/11 13:15:37;;;;;;;;;;;19.60;79.70;;;;;;6128556;23;20236;-71
2022/11/11 13:18:09;;;;;;;;;;;19.60;79.90;;;;;;6154688;23;19963;-70
2022/11/11 13:20:39;;;;;;;;;;;19.60;80.00;;;;;;6128034;23;19913;-72
2022/11/11 13:23:09;;;;;;;;;;;19.70;80.00;;;;;;6154874;23;20342;-71
2022/11/11 13:25:36;;;;;;;;;;;19.60;79.80;;;;;;6129493;23;19959;-71
2022/11/11 13:28:05;;;;;;;;;;;19.60;79.80;;;;;;6128765;23;19939;-71
2022/11/11 13:30:35;;;;;;;;;;;19.50;80.00;;;;;;6105666;23;19916;-71
2022/11/11 13:33:05;;;;;;;;;;;19.50;79.90;;;;;;6156487;23;19905;-72
2022/11/11 13:35:52;;;;;;;;;;;19.50;80.10;;;;;;6155679;23;20342;-71
2022/11/11 13:38:38;;;;;;;;;;;19.40;80.10;;;;;;6156241;23;19909;-71
2022/11/11 13:41:08;;;;;;;;;;;19.40;80.30;;;;;;6130513;23;19912;-72
2022/11/11 13:43:41;;;;;;;;;;;19.40;80.30;;;;;;6156236;23;20217;-72
2022/11/11 13:46:11;;;;;;;;;;;19.40;80.40;;;;;;6130558;23;19972;-72
2022/11/11 13:48:39;;;;;;;;;;;19.40;80.50;;;;;;6130038;23;19936;-72
2022/11/11 13:51:11;;;;;;;;;;;19.40;80.50;;;;;;6155618;23;19952;-72
2022/11/11 13:53:38;;;;;;;;;;;19.40;80.40;;;;;;6155666;23;19935;-72
2022/11/11 13:56:06;;;;;;;;;;;19.40;80.50;;;;;;6156360;23;19909;-73
2022/11/11 13:58:34;;;;;;;;;;;19.40;80.40;;;;;;6130518;23;19913;-72
2022/11/11 14:01:02;;;;;;;;;;;19.30;80.40;;;;;;6129352;23;19912;-73
2022/11/11 14:03:35;;;;;;;;;;;19.30;80.30;;;;;;6155925;23;19927;-72
2022/11/11 14:06:14;;;;;;;;;;;19.30;80.70;;;;;;6156181;23;20284;-72
2022/11/11 14:08:46;;;;;;;;;;;19.30;80.60;;;;;;6155625;23;19929;-71
2022/11/11 14:11:25;;;;;;;;;;;19.30;80.40;;;;;;6155058;23;19979;-71
2022/11/11 14:13:52;;;;;;;;;;;19.30;80.50;;;;;;6155807;23;19912;-71
2022/11/11 14:16:34;;;;;;;;;;;19.20;80.60;;;;;;6155457;23;19911;-71
2022/11/11 14:19:20;;;;;;;;;;;19.20;80.70;;;;;;6154882;23;19921;-71
2022/11/11 14:22:00;;;;;;;;;;;19.20;80.70;;;;;;6129667;23;19923;-70
2022/11/11 14:24:36;;;;;;;;;;;19.20;81.00;;;;;;6155287;23;19908;-70
2022/11/11 14:27:08;;;;;;;;;;;19.10;81.30;;;;;;6155930;23;19988;-72
2022/11/11 14:29:38;;;;;;;;;;;19.00;81.50;;;;;;6155313;23;20035;-72
2022/11/11 14:32:29;;;;;;;;;;;19.00;81.70;;;;;;6155812;23;19905;-71
2022/11/11 14:35:08;;;;;;;;;;;19.00;81.60;;;;;;6129877;23;19929;-72
2022/11/11 14:37:37;;;;;;;;;;;19.00;81.70;;;;;;6155157;23;19904;-71
2022/11/11 14:40:04;;;;;;;;;;;19.00;81.70;;;;;;6154111;23;19909;-71
2022/11/11 14:42:34;;;;;;;;;;;19.00;81.80;;;;;;6129353;23;19928;-71
2022/11/11 14:45:01;;;;;;;;;;;18.90;81.90;;;;;;6155751;23;19987;-71
2022/11/11 14:47:37;;;;;;;;;;;18.90;82.00;;;;;;6129559;23;19904;-71
2022/11/11 14:50:06;;;;;;;;;;;18.80;82.20;;;;;;6128952;23;19905;-71
2022/11/11 14:52:40;;;;;;;;;;;18.80;82.10;;;;;;6129429;23;19935;-72
2022/11/11 14:55:21;;;;;;;;;;;18.80;82.20;;;;;;6105153;23;19908;-72
2022/11/11 14:57:51;;;;;;;;;;;18.80;82.00;;;;;;6129163;23;19904;-71
2022/11/11 15:00:18;;;;;;;;;;;18.80;82.10;;;;;;6104063;23;19996;-72
2022/11/11 15:02:54;;;;;;;;;;;18.80;82.00;;;;;;6155922;23;19912;-72
2022/11/11 15:05:30;;;;;;;;;;;18.80;82.10;;;;;;6129728;23;19932;-72
2022/11/11 15:08:02;;;;;;;;;;;18.80;82.10;;;;;;6128607;23;20269;-72
2022/11/11 15:10:34;;;;;;;;;;;18.80;82.00;;;;;;6128560;23;19904;-72
2022/11/11 15:13:16;;;;;;;;;;;18.80;82.20;;;;;;6128932;23;19908;-72
2022/11/11 15:16:01;;;;;;;;;;;18.80;82.50;;;;;;6155292;23;19909;-72
2022/11/11 15:18:48;;;;;;;;;;;18.80;82.50;;;;;;6155155;23;19916;-72
2022/11/11 15:21:26;;;;;;;;;;;18.70;82.40;;;;;;6129022;23;19951;-71
2022/11/11 15:23:53;;;;;;;;;;;18.70;82.40;;;;;;6155166;23;20295;-71
2022/11/11 15:26:38;;;;;;;;;;;18.70;82.60;;;;;;6155021;23;19904;-72
2022/11/11 15:29:23;;;;;;;;;;;18.70;82.50;;;;;;6153986;23;20221;-71
2022/11/11 15:31:50;;;;;;;;;;;18.70;82.60;;;;;;6129056;23;19947;-71
2022/11/11 15:34:16;;;;;;;;;;;18.70;82.60;;;;;;6154697;23;19991;-71
2022/11/11 15:36:52;;;;;;;;;;;18.70;82.40;;;;;;6155217;23;20294;-71
2022/11/11 15:39:19;;;;;;;;;;;18.70;82.50;;;;;;6154226;23;19939;-71
2022/11/11 15:41:46;;;;;;;;;;;18.70;82.70;;;;;;6128573;23;20292;-71
2022/11/11 15:44:33;;;;;;;;;;;18.70;82.70;;;;;;6154747;23;20312;-71
2022/11/11 15:47:00;;;;;;;;;;;18.70;82.90;;;;;;6154690;23;19911;-71
2022/11/11 15:49:45;;;;;;;;;;;18.70;82.90;;;;;;6154425;23;19905;-71
2022/11/11 15:52:24;;;;;;;;;;;18.70;82.80;;;;;;6154840;23;19905;-71
2022/11/11 15:54:51;;;;;;;;;;;18.70;82.80;;;;;;6154235;23;19904;-71
2022/11/11 15:57:24;;;;;;;;;;;18.70;82.90;;;;;;6154834;23;19919;-72
2022/11/11 15:59:50;;;;;;;;;;;18.70;82.80;;;;;;6155382;23;19991;-71
2022/11/11 16:02:18;;;;;;;;;;;18.60;82.80;;;;;;6155261;23;19913;-71
2022/11/11 16:05:08;;;;;;;;;;;18.60;82.80;;;;;;6128724;23;19905;-72
2022/11/11 16:07:38;;;;;;;;;;;18.60;82.90;;;;;;6135604;23;19959;-72
2022/11/11 16:10:08;;;;;;;;;;;18.60;83.00;;;;;;6128234;23;19921;-70
2022/11/11 16:13:01;;;;;;;;;;;18.70;82.90;;;;;;6128161;23;19905;-71
2022/11/11 16:15:37;;;;;;;;;;;18.60;83.00;;;;;;6147562;23;19927;-71
2022/11/11 16:18:04;;;;;;;;;;;18.50;83.30;;;;;;6154641;23;20011;-72
2022/11/11 16:20:36;;;;;;;;;;;18.50;83.50;;;;;;6127814;23;20060;-71
2022/11/11 16:23:04;;;;;;;;;;;18.50;83.40;;;;;;6128643;23;20231;-71
2022/11/11 16:25:30;;;;;;;;;;;18.50;83.50;;;;;;6128185;23;19912;-72
2022/11/11 16:27:57;;;;;;;;;;;18.50;83.50;;;;;;6128663;23;20312;-72
2022/11/11 16:30:27;;;;;;;;;;;18.50;83.30;;;;;;6128629;23;20011;-72
2022/11/11 16:32:54;;;;;;;;;;;18.40;83.40;;;;;;6154864;23;19908;-72
2022/11/11 16:35:40;;;;;;;;;;;18.50;83.50;;;;;;6154839;23;20347;-71
2022/11/11 16:38:07;;;;;;;;;;;18.40;83.70;;;;;;6153948;23;19905;-71
2022/11/11 16:40:35;;;;;;;;;;;18.40;83.90;;;;;;6127938;23;20343;-71
2022/11/11 16:43:21;;;;;;;;;;;18.40;83.90;;;;;;6128709;23;19932;-71
2022/11/11 16:45:48;;;;;;;;;;;18.30;84.00;;;;;;6128772;23;19983;-72
2022/11/11 16:48:33;;;;;;;;;;;18.30;84.10;;;;;;6129042;23;19904;-71
2022/11/11 16:51:16;;;;;;;;;;;18.30;84.20;;;;;;6154372;23;19943;-71
2022/11/11 16:53:44;;;;;;;;;;;18.30;84.30;;;;;;6128549;23;19913;-71
2022/11/11 16:56:15;;;;;;;;;;;18.30;84.50;;;;;;6154834;23;19928;-71
2022/11/11 16:58:42;;;;;;;;;;;18.30;84.70;;;;;;6154576;23;20343;-71
2022/11/11 17:01:08;;;;;;;;;;;18.20;85.10;;;;;;6128246;23;20002;-71
2022/11/11 17:03:35;;;;;;;;;;;18.20;85.30;;;;;;6154751;23;19972;-70
2022/11/11 17:06:07;;;;;;;;;;;18.30;85.60;;;;;;6130601;23;19967;-70
2022/11/11 17:08:40;;;;;;;;;;;18.30;85.60;;;;;;6130698;23;19908;-70
2022/11/11 17:11:08;;;;;;;;;;;18.20;85.90;;;;;;6130186;23;19932;-71
2022/11/11 17:13:35;;;;;;;;;;;18.20;86.00;;;;;;6130520;23;19932;-70
2022/11/11 17:16:03;;;;;;;;;;;18.20;86.10;;;;;;6156374;23;19904;-70
2022/11/11 17:18:33;;;;;;;;;;;18.20;86.30;;;;;;6155988;23;20348;-71
2022/11/11 17:20:59;;;;;;;;;;;18.20;86.40;;;;;;6155987;23;20043;-70
2022/11/11 17:23:26;;;;;;;;;;;18.20;86.50;;;;;;6156078;23;19909;-71
2022/11/11 17:25:56;;;;;;;;;;;18.20;86.50;;;;;;6156115;23;20275;-71
2022/11/11 17:28:23;;;;;;;;;;;18.20;86.50;;;;;;6156432;23;19919;-71
2022/11/11 17:30:49;;;;;;;;;;;18.10;86.60;;;;;;6156167;23;19905;-71
2022/11/11 17:33:16;;;;;;;;;;;18.10;86.70;;;;;;6156229;23;19951;-71
2022/11/11 17:35:50;;;;;;;;;;;18.10;86.70;;;;;;6156211;23;19919;-71
2022/11/11 17:38:16;;;;;;;;;;;18.10;86.70;;;;;;6130091;23;19904;-71
2022/11/11 17:40:44;;;;;;;;;;;17.90;86.90;;;;;;6155533;23;19995;-71
2022/11/11 17:43:11;;;;;;;;;;;17.90;87.20;;;;;;6156189;23;19912;-71
2022/11/11 17:45:37;;;;;;;;;;;18.00;87.20;;;;;;6156216;23;19980;-71
2022/11/11 17:48:04;;;;;;;;;;;18.00;87.10;;;;;;6156540;23;19908;-73
2022/11/11 17:50:31;;;;;;;;;;;17.90;86.60;;;;;;6154960;23;20255;-71
2022/11/11 17:52:57;;;;;;;;;;;18.00;86.60;;;;;;6155716;23;20228;-71
2022/11/11 17:55:24;;;;;;;;;;;18.00;86.60;;;;;;6155784;23;20007;-71
2022/11/11 17:57:51;;;;;;;;;;;17.90;86.60;;;;;;6155824;23;19951;-71
2022/11/11 18:00:18;;;;;;;;;;;17.90;86.70;;;;;;6155434;23;20340;-70
2022/11/11 18:02:44;;;;;;;;;;;17.80;86.50;;;;;;6156344;23;19967;-71
2022/11/11 18:05:12;;;;;;;;;;;17.80;86.60;;;;;;6155751;23;20284;-71
2022/11/11 18:07:40;;;;;;;;;;;17.70;86.70;;;;;;6155935;23;19934;-71
2022/11/11 18:10:07;;;;;;;;;;;17.80;86.80;;;;;;6129282;23;19991;-71
2022/11/11 18:12:33;;;;;;;;;;;17.80;86.70;;;;;;6156102;23;19911;-71
2022/11/11 18:15:00;;;;;;;;;;;17.80;86.50;;;;;;6129729;23;19986;-71
2022/11/11 18:17:27;;;;;;;;;;;17.70;86.50;;;;;;6156112;23;19983;-70
2022/11/11 18:19:53;;;;;;;;;;;17.70;86.50;;;;;;6155478;23;19916;-71
2022/11/11 18:22:20;;;;;;;;;;;17.70;86.50;;;;;;6155824;23;19936;-71
2022/11/11 18:24:47;;;;;;;;;;;17.70;86.40;;;;;;6155788;23;19905;-70
2022/11/11 18:27:13;;;;;;;;;;;17.70;86.40;;;;;;6155642;23;19975;-70
2022/11/11 18:29:41;;;;;;;;;;;17.70;86.30;;;;;;6155256;23;20332;-70
2022/11/11 18:32:08;;;;;;;;;;;17.70;86.40;;;;;;6155884;23;19904;-70
2022/11/11 18:34:35;;;;;;;;;;;17.70;86.50;;;;;;6155417;23;19905;-71
2022/11/11 18:37:02;;;;;;;;;;;17.70;86.30;;;;;;6155756;23;19980;-70
2022/11/11 18:39:28;;;;;;;;;;;17.70;86.20;;;;;;6154941;23;19923;-71
2022/11/11 18:41:55;;;;;;;;;;;17.80;86.20;;;;;;6155269;23;20304;-71
2022/11/11 18:44:21;;;;;;;;;;;17.80;86.30;;;;;;6156388;23;19908;-71
2022/11/11 18:46:48;;;;;;;;;;;17.80;86.20;;;;;;6155399;23;19916;-67
2022/11/11 18:49:15;;;;;;;;;;;17.70;86.50;;;;;;6154885;23;19912;-67
2022/11/11 18:51:41;;;;;;;;;;;17.70;86.40;;;;;;6154462;23;19988;-67
2022/11/11 18:54:08;;;;;;;;;;;17.70;86.30;;;;;;6155250;23;19904;-67
2022/11/11 18:56:35;;;;;;;;;;;17.80;86.40;;;;;;6153967;23;19920;-70
2022/11/11 18:59:02;;;;;;;;;;;17.80;86.30;;;;;;6151757;23;19936;-69
2022/11/11 19:01:29;;;;;;;;;;;17.70;86.40;;;;;;6126035;23;19917;-70
2022/11/11 19:04:01;;;;;;;;;;;17.80;86.40;;;;;;6152414;23;20287;-71
2022/11/11 19:06:28;;;;;;;;;;;17.90;86.30;;;;;;6152250;23;19916;-70
2022/11/11 19:08:55;;;;;;;;;;;17.90;86.30;;;;;;6151844;23;19905;-70
2022/11/11 19:11:22;;;;;;;;;;;17.90;86.00;;;;;;6152293;23;19916;-70
2022/11/11 19:13:49;;;;;;;;;;;18.00;86.10;;;;;;6125995;23;19912;-70
2022/11/11 19:16:16;;;;;;;;;;;18.00;85.90;;;;;;6149121;23;19909;-70
2022/11/11 19:18:43;;;;;;;;;;;18.00;85.80;;;;;;6125702;23;20394;-70
2022/11/11 19:21:11;;;;;;;;;;;18.10;85.60;;;;;;6125149;23;19991;-71
2022/11/11 19:23:37;;;;;;;;;;;18.10;85.60;;;;;;6125025;23;19904;-71
2022/11/11 19:26:04;;;;;;;;;;;18.20;85.70;;;;;;6125045;23;19905;-70
2022/11/11 19:28:31;;;;;;;;;;;18.20;85.50;;;;;;6151890;23;19909;-70
2022/11/11 19:31:01;;;;;;;;;;;18.20;85.30;;;;;;6123436;23;20252;-70
2022/11/11 19:33:28;;;;;;;;;;;18.30;85.10;;;;;;6151129;23;20275;-70
2022/11/11 19:35:58;;;;;;;;;;;18.30;85.00;;;;;;6151360;23;20264;-71
2022/11/11 19:38:24;;;;;;;;;;;18.40;84.70;;;;;;6151205;23;20300;-71
2022/11/11 19:40:51;;;;;;;;;;;18.40;84.60;;;;;;6150797;23;19928;-71
2022/11/11 19:43:18;;;;;;;;;;;18.50;84.40;;;;;;6150881;23;19940;-69
2022/11/11 19:45:44;;;;;;;;;;;18.50;84.30;;;;;;6150768;23;19991;-69
2022/11/11 19:48:11;;;;;;;;;;;18.60;84.30;;;;;;6125293;23;19916;-69
2022/11/11 19:50:38;;;;;;;;;;;18.70;84.20;;;;;;6150510;23;19908;-69
2022/11/11 19:53:04;;;;;;;;;;;18.70;84.20;;;;;;6151061;23;19909;-69
2022/11/11 19:55:31;;;;;;;;;;;18.80;84.00;;;;;;6151335;23;19928;-70
2022/11/11 19:57:57;;;;;;;;;;;18.80;83.90;;;;;;6151961;23;19905;-69
2022/11/11 20:00:24;;;;;;;;;;;18.80;83.70;;;;;;6150743;23;19913;-69
2022/11/11 20:02:51;;;;;;;;;;;18.80;83.50;;;;;;6151174;23;20147;-71
2022/11/11 20:05:17;;;;;;;;;;;18.80;83.50;;;;;;6151605;23;20329;-73
2022/11/11 20:07:44;;;;;;;;;;;19.00;83.50;;;;;;6125634;23;19937;-70
2022/11/11 20:10:10;;;;;;;;;;;19.00;83.50;;;;;;6150219;23;19920;-70
2022/11/11 20:12:37;;;;;;;;;;;19.10;83.10;;;;;;6150707;23;19916;-70
2022/11/11 20:15:04;;;;;;;;;;;19.00;83.00;;;;;;6150658;23;19935;-70
2022/11/11 20:17:30;;;;;;;;;;;19.20;82.90;;;;;;6149649;23;19921;-72
2022/11/11 20:19:57;;;;;;;;;;;19.20;82.70;;;;;;6150861;23;20244;-72
2022/11/11 20:22:23;;;;;;;;;;;19.30;83.20;;;;;;6150191;23;20244;-72
2022/11/11 20:24:50;;;;;;;;;;;19.30;83.00;;;;;;6151625;23;19916;-72
2022/11/11 20:27:17;;;;;;;;;;;19.40;82.80;;;;;;6151218;23;19908;-72
2022/11/11 20:29:45;;;;;;;;;;;19.40;82.70;;;;;;6151000;23;20320;-72
2022/11/11 20:32:12;;;;;;;;;;;19.50;82.50;;;;;;6148939;23;19971;-67
2022/11/11 20:34:38;;;;;;;;;;;19.60;82.30;;;;;;6151050;23;19939;-66
2022/11/11 20:37:05;;;;;;;;;;;19.60;82.30;;;;;;6152171;23;19915;-67
2022/11/11 20:39:31;;;;;;;;;;;19.70;82.20;;;;;;6152175;23;19984;-66
2022/11/11 20:41:58;;;;;;;;;;;19.70;82.00;;;;;;6153289;23;19982;-66
2022/11/11 20:44:25;;;;;;;;;;;19.70;81.50;;;;;;6152995;23;19909;-66
2022/11/11 20:46:51;;;;;;;;;;;19.80;81.90;;;;;;6153661;23;19932;-68
2022/11/11 20:49:18;;;;;;;;;;;20.00;81.90;;;;;;6153341;23;19905;-67